sensor_id;sensor_type;location;lat;lon;timestamp;P1;durP1;ratioP1;P2;durP2;ratioP2
15553;SDS011;7878;44.632;10.942;2023-02-18T00:02:01;39.90;;;25.03;;
15553;SDS011;7878;44.632;10.942;2023-02-18T00:04:28;31.60;;;23.87;;
15553;SDS011;7878;44.632;10.942;2023-02-18T00:06:53;31.63;;;23.40;;
15553;SDS011;7878;44.632;10.942;2023-02-18T00:09:19;37.50;;;26.30;;
15553;SDS011;7878;44.632;10.942;2023-02-18T00:11:45;44.93;;;28.00;;
15553;SDS011;7878;44.632;10.942;2023-02-18T00:14:11;40.37;;;27.47;;
15553;SDS011;7878;44.632;10.942;2023-02-18T00:16:38;38.33;;;26.37;;
15553;SDS011;7878;44.632;10.942;2023-02-18T00:19:05;40.47;;;27.13;;
15553;SDS011;7878;44.632;10.942;2023-02-18T00:21:35;42.63;;;27.93;;
15553;SDS011;7878;44.632;10.942;2023-02-18T00:24:00;43.90;;;27.27;;
15553;SDS011;7878;44.632;10.942;2023-02-18T00:26:27;32.97;;;25.13;;
15553;SDS011;7878;44.632;10.942;2023-02-18T00:28:53;39.67;;;27.20;;
15553;SDS011;7878;44.632;10.942;2023-02-18T00:31:20;35.67;;;26.70;;
15553;SDS011;7878;44.632;10.942;2023-02-18T00:33:48;40.63;;;27.30;;
15553;SDS011;7878;44.632;10.942;2023-02-18T00:36:15;37.87;;;26.27;;
15553;SDS011;7878;44.632;10.942;2023-02-18T00:38:43;35.63;;;26.00;;
15553;SDS011;7878;44.632;10.942;2023-02-18T00:41:10;33.90;;;25.10;;
15553;SDS011;7878;44.632;10.942;2023-02-18T00:43:36;38.83;;;26.80;;
15553;SDS011;7878;44.632;10.942;2023-02-18T00:46:01;38.60;;;26.20;;
15553;SDS011;7878;44.632;10.942;2023-02-18T00:48:27;37.30;;;26.77;;
15553;SDS011;7878;44.632;10.942;2023-02-18T00:50:53;38.53;;;28.13;;
15553;SDS011;7878;44.632;10.942;2023-02-18T00:53:18;39.27;;;27.40;;
15553;SDS011;7878;44.632;10.942;2023-02-18T00:55:46;42.23;;;28.63;;
15553;SDS011;7878;44.632;10.942;2023-02-18T00:58:12;41.13;;;27.10;;
15553;SDS011;7878;44.632;10.942;2023-02-18T01:00:39;37.60;;;27.17;;
15553;SDS011;7878;44.632;10.942;2023-02-18T01:03:05;38.40;;;26.33;;
15553;SDS011;7878;44.632;10.942;2023-02-18T01:05:32;37.57;;;27.20;;
15553;SDS011;7878;44.632;10.942;2023-02-18T01:07:58;42.90;;;28.10;;
15553;SDS011;7878;44.632;10.942;2023-02-18T01:10:23;41.33;;;28.37;;
15553;SDS011;7878;44.632;10.942;2023-02-18T01:12:49;43.80;;;29.73;;
15553;SDS011;7878;44.632;10.942;2023-02-18T01:15:15;42.50;;;28.80;;
15553;SDS011;7878;44.632;10.942;2023-02-18T01:17:42;43.33;;;29.27;;
15553;SDS011;7878;44.632;10.942;2023-02-18T01:20:08;48.17;;;31.77;;
15553;SDS011;7878;44.632;10.942;2023-02-18T01:22:34;47.07;;;32.23;;
15553;SDS011;7878;44.632;10.942;2023-02-18T01:25:00;51.40;;;34.07;;
15553;SDS011;7878;44.632;10.942;2023-02-18T01:27:26;52.27;;;32.27;;
15553;SDS011;7878;44.632;10.942;2023-02-18T01:29:52;54.70;;;35.20;;
15553;SDS011;7878;44.632;10.942;2023-02-18T01:32:18;53.13;;;34.93;;
15553;SDS011;7878;44.632;10.942;2023-02-18T01:34:43;53.13;;;35.20;;
15553;SDS011;7878;44.632;10.942;2023-02-18T01:37:09;47.23;;;34.20;;
15553;SDS011;7878;44.632;10.942;2023-02-18T01:39:34;53.90;;;35.87;;
15553;SDS011;7878;44.632;10.942;2023-02-18T01:42:00;51.80;;;34.50;;
15553;SDS011;7878;44.632;10.942;2023-02-18T01:44:27;50.73;;;35.03;;
15553;SDS011;7878;44.632;10.942;2023-02-18T01:46:53;52.80;;;35.90;;
15553;SDS011;7878;44.632;10.942;2023-02-18T01:49:29;49.80;;;33.17;;
15553;SDS011;7878;44.632;10.942;2023-02-18T01:52:07;54.67;;;34.87;;
15553;SDS011;7878;44.632;10.942;2023-02-18T01:54:37;48.57;;;33.73;;
15553;SDS011;7878;44.632;10.942;2023-02-18T01:57:06;46.87;;;33.03;;
15553;SDS011;7878;44.632;10.942;2023-02-18T01:59:40;50.03;;;32.23;;
15553;SDS011;7878;44.632;10.942;2023-02-18T02:02:07;46.50;;;33.57;;
15553;SDS011;7878;44.632;10.942;2023-02-18T02:04:36;46.20;;;31.53;;
15553;SDS011;7878;44.632;10.942;2023-02-18T02:07:02;45.53;;;32.53;;
15553;SDS011;7878;44.632;10.942;2023-02-18T02:09:28;50.70;;;32.47;;
15553;SDS011;7878;44.632;10.942;2023-02-18T02:40:00;45.37;;;30.80;;
15553;SDS011;7878;44.632;10.942;2023-02-18T02:42:43;44.03;;;29.43;;
15553;SDS011;7878;44.632;10.942;2023-02-18T02:46:00;43.50;;;29.47;;
15553;SDS011;7878;44.632;10.942;2023-02-18T02:51:17;43.70;;;27.87;;
15553;SDS011;7878;44.632;10.942;2023-02-18T02:53:44;40.67;;;28.27;;
15553;SDS011;7878;44.632;10.942;2023-02-18T02:56:12;44.63;;;27.33;;
15553;SDS011;7878;44.632;10.942;2023-02-18T02:59:02;39.27;;;28.33;;
15553;SDS011;7878;44.632;10.942;2023-02-18T03:12:19;38.47;;;27.40;;
15553;SDS011;7878;44.632;10.942;2023-02-18T03:17:43;36.33;;;26.90;;
15553;SDS011;7878;44.632;10.942;2023-02-18T03:20:57;42.40;;;27.10;;
15553;SDS011;7878;44.632;10.942;2023-02-18T03:23:39;36.90;;;26.30;;
15553;SDS011;7878;44.632;10.942;2023-02-18T03:26:11;37.13;;;28.07;;
15553;SDS011;7878;44.632;10.942;2023-02-18T03:28:38;37.53;;;27.53;;
15553;SDS011;7878;44.632;10.942;2023-02-18T03:31:06;35.90;;;26.00;;
15553;SDS011;7878;44.632;10.942;2023-02-18T03:33:45;40.90;;;27.87;;
15553;SDS011;7878;44.632;10.942;2023-02-18T03:36:20;39.77;;;26.67;;
15553;SDS011;7878;44.632;10.942;2023-02-18T03:41:48;43.43;;;27.07;;
15553;SDS011;7878;44.632;10.942;2023-02-18T03:44:13;36.33;;;25.10;;
15553;SDS011;7878;44.632;10.942;2023-02-18T03:46:41;40.60;;;27.90;;
15553;SDS011;7878;44.632;10.942;2023-02-18T03:49:08;38.93;;;28.10;;
15553;SDS011;7878;44.632;10.942;2023-02-18T03:51:35;37.97;;;27.57;;
15553;SDS011;7878;44.632;10.942;2023-02-18T03:54:01;40.33;;;28.37;;
15553;SDS011;7878;44.632;10.942;2023-02-18T03:56:27;41.47;;;27.63;;
15553;SDS011;7878;44.632;10.942;2023-02-18T03:58:52;42.43;;;27.90;;
15553;SDS011;7878;44.632;10.942;2023-02-18T04:01:18;40.17;;;28.50;;
15553;SDS011;7878;44.632;10.942;2023-02-18T04:03:44;38.77;;;27.07;;
15553;SDS011;7878;44.632;10.942;2023-02-18T04:06:10;37.53;;;26.93;;
15553;SDS011;7878;44.632;10.942;2023-02-18T04:08:35;39.40;;;26.17;;
15553;SDS011;7878;44.632;10.942;2023-02-18T04:11:01;37.13;;;27.70;;
15553;SDS011;7878;44.632;10.942;2023-02-18T04:13:27;38.67;;;26.80;;
15553;SDS011;7878;44.632;10.942;2023-02-18T04:15:53;42.73;;;27.40;;
15553;SDS011;7878;44.632;10.942;2023-02-18T04:18:19;41.07;;;26.23;;
15553;SDS011;7878;44.632;10.942;2023-02-18T04:20:44;38.20;;;25.70;;
15553;SDS011;7878;44.632;10.942;2023-02-18T04:23:10;37.93;;;25.77;;
15553;SDS011;7878;44.632;10.942;2023-02-18T04:25:36;34.13;;;25.47;;
15553;SDS011;7878;44.632;10.942;2023-02-18T04:28:02;34.63;;;25.90;;
15553;SDS011;7878;44.632;10.942;2023-02-18T04:30:28;36.13;;;25.63;;
15553;SDS011;7878;44.632;10.942;2023-02-18T04:32:54;35.33;;;23.37;;
15553;SDS011;7878;44.632;10.942;2023-02-18T04:35:19;34.27;;;24.00;;
15553;SDS011;7878;44.632;10.942;2023-02-18T04:37:45;34.97;;;24.33;;
15553;SDS011;7878;44.632;10.942;2023-02-18T04:40:11;32.17;;;23.57;;
15553;SDS011;7878;44.632;10.942;2023-02-18T04:42:37;34.63;;;22.77;;
15553;SDS011;7878;44.632;10.942;2023-02-18T04:45:02;34.27;;;23.17;;
15553;SDS011;7878;44.632;10.942;2023-02-18T04:47:29;31.73;;;22.83;;
15553;SDS011;7878;44.632;10.942;2023-02-18T04:49:54;31.77;;;22.83;;
15553;SDS011;7878;44.632;10.942;2023-02-18T04:52:20;28.70;;;19.43;;
15553;SDS011;7878;44.632;10.942;2023-02-18T04:54:46;28.40;;;20.70;;
15553;SDS011;7878;44.632;10.942;2023-02-18T04:57:11;29.67;;;19.57;;
15553;SDS011;7878;44.632;10.942;2023-02-18T04:59:37;26.57;;;19.50;;
15553;SDS011;7878;44.632;10.942;2023-02-18T05:02:03;26.90;;;19.23;;
15553;SDS011;7878;44.632;10.942;2023-02-18T05:04:29;24.47;;;18.97;;
15553;SDS011;7878;44.632;10.942;2023-02-18T05:06:55;26.80;;;18.43;;
15553;SDS011;7878;44.632;10.942;2023-02-18T05:09:21;30.60;;;20.00;;
15553;SDS011;7878;44.632;10.942;2023-02-18T05:11:47;29.30;;;19.83;;
15553;SDS011;7878;44.632;10.942;2023-02-18T05:14:13;27.67;;;20.17;;
15553;SDS011;7878;44.632;10.942;2023-02-18T05:16:39;33.57;;;20.40;;
15553;SDS011;7878;44.632;10.942;2023-02-18T05:19:05;29.87;;;19.73;;
15553;SDS011;7878;44.632;10.942;2023-02-18T05:21:31;26.23;;;18.97;;
15553;SDS011;7878;44.632;10.942;2023-02-18T05:23:57;29.70;;;20.70;;
15553;SDS011;7878;44.632;10.942;2023-02-18T05:26:22;34.50;;;20.20;;
15553;SDS011;7878;44.632;10.942;2023-02-18T05:28:48;31.23;;;20.53;;
15553;SDS011;7878;44.632;10.942;2023-02-18T05:31:14;29.60;;;20.50;;
15553;SDS011;7878;44.632;10.942;2023-02-18T05:33:40;29.30;;;20.30;;
15553;SDS011;7878;44.632;10.942;2023-02-18T05:36:06;32.50;;;21.60;;
15553;SDS011;7878;44.632;10.942;2023-02-18T05:38:32;32.20;;;20.73;;
15553;SDS011;7878;44.632;10.942;2023-02-18T05:40:57;31.70;;;21.13;;
15553;SDS011;7878;44.632;10.942;2023-02-18T05:43:23;29.77;;;20.43;;
15553;SDS011;7878;44.632;10.942;2023-02-18T05:45:49;28.53;;;20.57;;
15553;SDS011;7878;44.632;10.942;2023-02-18T05:48:14;30.63;;;20.17;;
15553;SDS011;7878;44.632;10.942;2023-02-18T05:50:40;30.53;;;20.57;;
15553;SDS011;7878;44.632;10.942;2023-02-18T05:53:06;27.07;;;18.53;;
15553;SDS011;7878;44.632;10.942;2023-02-18T05:55:31;29.13;;;19.53;;
15553;SDS011;7878;44.632;10.942;2023-02-18T05:58:01;26.40;;;18.90;;
15553;SDS011;7878;44.632;10.942;2023-02-18T06:00:27;26.37;;;18.57;;
15553;SDS011;7878;44.632;10.942;2023-02-18T06:02:54;24.97;;;18.23;;
15553;SDS011;7878;44.632;10.942;2023-02-18T06:05:20;28.00;;;18.77;;
15553;SDS011;7878;44.632;10.942;2023-02-18T06:07:45;28.23;;;20.10;;
15553;SDS011;7878;44.632;10.942;2023-02-18T06:10:11;28.07;;;18.67;;
15553;SDS011;7878;44.632;10.942;2023-02-18T06:12:37;32.77;;;19.63;;
15553;SDS011;7878;44.632;10.942;2023-02-18T06:15:02;27.30;;;18.77;;
15553;SDS011;7878;44.632;10.942;2023-02-18T06:17:28;25.30;;;17.90;;
15553;SDS011;7878;44.632;10.942;2023-02-18T06:19:54;32.43;;;19.57;;
15553;SDS011;7878;44.632;10.942;2023-02-18T06:22:19;28.10;;;18.80;;
15553;SDS011;7878;44.632;10.942;2023-02-18T06:24:46;28.07;;;19.60;;
15553;SDS011;7878;44.632;10.942;2023-02-18T06:27:12;25.57;;;18.90;;
15553;SDS011;7878;44.632;10.942;2023-02-18T06:29:37;28.90;;;19.13;;
15553;SDS011;7878;44.632;10.942;2023-02-18T06:32:03;29.97;;;18.07;;
15553;SDS011;7878;44.632;10.942;2023-02-18T06:34:29;32.43;;;19.23;;
15553;SDS011;7878;44.632;10.942;2023-02-18T06:36:54;38.43;;;18.93;;
15553;SDS011;7878;44.632;10.942;2023-02-18T06:39:20;24.90;;;17.70;;
15553;SDS011;7878;44.632;10.942;2023-02-18T06:41:46;31.57;;;18.67;;
15553;SDS011;7878;44.632;10.942;2023-02-18T06:44:11;28.83;;;18.50;;
15553;SDS011;7878;44.632;10.942;2023-02-18T06:46:39;28.20;;;17.90;;
15553;SDS011;7878;44.632;10.942;2023-02-18T06:49:04;29.83;;;18.07;;
15553;SDS011;7878;44.632;10.942;2023-02-18T06:51:30;26.17;;;16.80;;
15553;SDS011;7878;44.632;10.942;2023-02-18T06:53:56;32.10;;;18.27;;
15553;SDS011;7878;44.632;10.942;2023-02-18T06:56:21;37.17;;;18.00;;
15553;SDS011;7878;44.632;10.942;2023-02-18T06:58:47;30.63;;;17.40;;
15553;SDS011;7878;44.632;10.942;2023-02-18T07:01:13;25.53;;;17.13;;
15553;SDS011;7878;44.632;10.942;2023-02-18T07:03:38;25.67;;;16.17;;
15553;SDS011;7878;44.632;10.942;2023-02-18T07:06:04;23.60;;;16.47;;
15553;SDS011;7878;44.632;10.942;2023-02-18T07:08:30;22.63;;;17.00;;
15553;SDS011;7878;44.632;10.942;2023-02-18T07:11:00;22.07;;;16.23;;
15553;SDS011;7878;44.632;10.942;2023-02-18T07:13:25;29.20;;;18.60;;
15553;SDS011;7878;44.632;10.942;2023-02-18T07:15:51;26.90;;;18.23;;
15553;SDS011;7878;44.632;10.942;2023-02-18T07:18:17;23.60;;;17.93;;
15553;SDS011;7878;44.632;10.942;2023-02-18T07:20:43;32.30;;;19.60;;
15553;SDS011;7878;44.632;10.942;2023-02-18T07:23:09;28.63;;;19.37;;
15553;SDS011;7878;44.632;10.942;2023-02-18T07:25:35;30.63;;;20.03;;
15553;SDS011;7878;44.632;10.942;2023-02-18T07:28:01;31.23;;;19.77;;
15553;SDS011;7878;44.632;10.942;2023-02-18T07:30:26;32.57;;;20.70;;
15553;SDS011;7878;44.632;10.942;2023-02-18T07:32:52;38.10;;;23.43;;
15553;SDS011;7878;44.632;10.942;2023-02-18T07:35:18;37.00;;;25.97;;
15553;SDS011;7878;44.632;10.942;2023-02-18T07:37:48;43.17;;;27.50;;
15553;SDS011;7878;44.632;10.942;2023-02-18T07:40:18;51.63;;;29.17;;
15553;SDS011;7878;44.632;10.942;2023-02-18T07:42:46;48.27;;;29.70;;
15553;SDS011;7878;44.632;10.942;2023-02-18T07:45:12;42.33;;;29.03;;
15553;SDS011;7878;44.632;10.942;2023-02-18T07:47:38;46.07;;;28.57;;
15553;SDS011;7878;44.632;10.942;2023-02-18T07:50:04;43.13;;;28.03;;
15553;SDS011;7878;44.632;10.942;2023-02-18T07:52:30;50.83;;;28.43;;
15553;SDS011;7878;44.632;10.942;2023-02-18T07:54:56;45.87;;;28.90;;
15553;SDS011;7878;44.632;10.942;2023-02-18T07:57:22;44.70;;;29.23;;
15553;SDS011;7878;44.632;10.942;2023-02-18T07:59:47;44.10;;;29.67;;
15553;SDS011;7878;44.632;10.942;2023-02-18T08:02:17;49.20;;;30.60;;
15553;SDS011;7878;44.632;10.942;2023-02-18T08:04:45;48.57;;;32.40;;
15553;SDS011;7878;44.632;10.942;2023-02-18T08:07:12;52.80;;;30.80;;
15553;SDS011;7878;44.632;10.942;2023-02-18T08:09:39;46.03;;;30.23;;
15553;SDS011;7878;44.632;10.942;2023-02-18T08:12:05;52.17;;;30.63;;
15553;SDS011;7878;44.632;10.942;2023-02-18T08:14:31;45.80;;;31.80;;
15553;SDS011;7878;44.632;10.942;2023-02-18T08:16:57;50.17;;;32.97;;
15553;SDS011;7878;44.632;10.942;2023-02-18T08:19:23;51.30;;;32.40;;
15553;SDS011;7878;44.632;10.942;2023-02-18T08:21:48;51.50;;;33.37;;
15553;SDS011;7878;44.632;10.942;2023-02-18T08:24:14;51.60;;;30.97;;
15553;SDS011;7878;44.632;10.942;2023-02-18T08:26:40;42.73;;;30.50;;
15553;SDS011;7878;44.632;10.942;2023-02-18T08:29:05;48.40;;;31.70;;
15553;SDS011;7878;44.632;10.942;2023-02-18T08:31:31;43.50;;;31.33;;
15553;SDS011;7878;44.632;10.942;2023-02-18T08:33:57;49.37;;;30.53;;
15553;SDS011;7878;44.632;10.942;2023-02-18T08:36:25;42.13;;;30.03;;
15553;SDS011;7878;44.632;10.942;2023-02-18T08:38:52;44.47;;;31.23;;
15553;SDS011;7878;44.632;10.942;2023-02-18T08:41:18;48.20;;;32.27;;
15553;SDS011;7878;44.632;10.942;2023-02-18T08:43:43;45.23;;;32.03;;
15553;SDS011;7878;44.632;10.942;2023-02-18T08:46:09;43.03;;;31.60;;
15553;SDS011;7878;44.632;10.942;2023-02-18T08:48:36;41.43;;;32.03;;
15553;SDS011;7878;44.632;10.942;2023-02-18T08:51:15;47.10;;;33.30;;
15553;SDS011;7878;44.632;10.942;2023-02-18T08:53:42;44.63;;;32.23;;
15553;SDS011;7878;44.632;10.942;2023-02-18T08:56:10;39.27;;;31.17;;
15553;SDS011;7878;44.632;10.942;2023-02-18T08:58:37;40.13;;;30.87;;
15553;SDS011;7878;44.632;10.942;2023-02-18T09:01:06;39.93;;;31.97;;
15553;SDS011;7878;44.632;10.942;2023-02-18T09:03:33;42.60;;;32.00;;
15553;SDS011;7878;44.632;10.942;2023-02-18T09:05:59;285.57;;;50.13;;
15553;SDS011;7878;44.632;10.942;2023-02-18T09:08:25;39.50;;;31.70;;
15553;SDS011;7878;44.632;10.942;2023-02-18T09:10:58;42.77;;;31.73;;
15553;SDS011;7878;44.632;10.942;2023-02-18T09:13:26;49.33;;;32.97;;
15553;SDS011;7878;44.632;10.942;2023-02-18T09:15:59;43.03;;;31.93;;
15553;SDS011;7878;44.632;10.942;2023-02-18T09:18:30;46.75;;;34.60;;
15553;SDS011;7878;44.632;10.942;2023-02-18T09:20:57;42.78;;;32.35;;
15553;SDS011;7878;44.632;10.942;2023-02-18T09:23:24;33.15;;;28.88;;
15553;SDS011;7878;44.632;10.942;2023-02-18T09:25:51;43.95;;;32.17;;
15553;SDS011;7878;44.632;10.942;2023-02-18T09:28:17;38.75;;;32.28;;
15553;SDS011;7878;44.632;10.942;2023-02-18T09:30:43;35.80;;;29.98;;
15553;SDS011;7878;44.632;10.942;2023-02-18T09:33:09;34.88;;;30.35;;
15553;SDS011;7878;44.632;10.942;2023-02-18T09:35:37;35.30;;;30.52;;
15553;SDS011;7878;44.632;10.942;2023-02-18T09:38:04;38.45;;;30.08;;
15553;SDS011;7878;44.632;10.942;2023-02-18T09:40:31;36.55;;;27.73;;
15553;SDS011;7878;44.632;10.942;2023-02-18T09:42:59;24.50;;;21.33;;
15553;SDS011;7878;44.632;10.942;2023-02-18T09:45:25;22.80;;;20.00;;
15553;SDS011;7878;44.632;10.942;2023-02-18T09:47:52;25.70;;;19.23;;
15553;SDS011;7878;44.632;10.942;2023-02-18T09:52:43;27.55;;;19.83;;
15553;SDS011;7878;44.632;10.942;2023-02-18T09:55:23;27.05;;;19.80;;
15553;SDS011;7878;44.632;10.942;2023-02-18T09:57:53;27.63;;;19.67;;
15553;SDS011;7878;44.632;10.942;2023-02-18T10:00:24;30.60;;;20.83;;
15553;SDS011;7878;44.632;10.942;2023-02-18T10:02:54;22.67;;;19.92;;
15553;SDS011;7878;44.632;10.942;2023-02-18T10:05:30;22.05;;;19.67;;
15553;SDS011;7878;44.632;10.942;2023-02-18T10:08:02;27.60;;;20.13;;
15553;SDS011;7878;44.632;10.942;2023-02-18T10:10:38;23.63;;;20.63;;
15553;SDS011;7878;44.632;10.942;2023-02-18T10:13:11;30.40;;;20.33;;
15553;SDS011;7878;44.632;10.942;2023-02-18T10:15:39;23.00;;;19.38;;
15553;SDS011;7878;44.632;10.942;2023-02-18T10:18:10;27.67;;;21.02;;
15553;SDS011;7878;44.632;10.942;2023-02-18T10:20:45;22.42;;;19.40;;
15553;SDS011;7878;44.632;10.942;2023-02-18T10:23:14;26.83;;;18.58;;
15553;SDS011;7878;44.632;10.942;2023-02-18T10:25:41;20.90;;;18.33;;
15553;SDS011;7878;44.632;10.942;2023-02-18T10:28:09;28.25;;;19.42;;
15553;SDS011;7878;44.632;10.942;2023-02-18T10:30:36;22.25;;;19.75;;
15553;SDS011;7878;44.632;10.942;2023-02-18T10:35:46;25.98;;;23.20;;
15553;SDS011;7878;44.632;10.942;2023-02-18T10:41:15;32.58;;;23.50;;
15553;SDS011;7878;44.632;10.942;2023-02-18T10:43:47;30.98;;;23.98;;
15553;SDS011;7878;44.632;10.942;2023-02-18T10:49:15;28.17;;;25.13;;
15553;SDS011;7878;44.632;10.942;2023-02-18T10:51:54;34.88;;;25.23;;
15553;SDS011;7878;44.632;10.942;2023-02-18T10:54:25;32.05;;;26.80;;
15553;SDS011;7878;44.632;10.942;2023-02-18T10:57:14;30.48;;;24.77;;
15553;SDS011;7878;44.632;10.942;2023-02-18T10:59:56;32.38;;;24.77;;
15553;SDS011;7878;44.632;10.942;2023-02-18T11:02:34;29.90;;;24.40;;
15553;SDS011;7878;44.632;10.942;2023-02-18T11:05:05;31.50;;;25.38;;
15553;SDS011;7878;44.632;10.942;2023-02-18T11:07:51;26.52;;;23.60;;
15553;SDS011;7878;44.632;10.942;2023-02-18T11:10:39;30.08;;;23.17;;
15553;SDS011;7878;44.632;10.942;2023-02-18T11:13:08;28.55;;;22.42;;
15553;SDS011;7878;44.632;10.942;2023-02-18T11:15:37;28.58;;;25.05;;
15553;SDS011;7878;44.632;10.942;2023-02-18T11:18:37;27.67;;;24.67;;
15553;SDS011;7878;44.632;10.942;2023-02-18T11:21:28;25.05;;;22.30;;
15553;SDS011;7878;44.632;10.942;2023-02-18T11:23:54;25.00;;;22.33;;
15553;SDS011;7878;44.632;10.942;2023-02-18T11:26:29;23.70;;;21.30;;
15553;SDS011;7878;44.632;10.942;2023-02-18T11:29:00;23.73;;;21.23;;
15553;SDS011;7878;44.632;10.942;2023-02-18T11:31:44;25.55;;;21.45;;
15553;SDS011;7878;44.632;10.942;2023-02-18T11:34:19;25.67;;;21.58;;
15553;SDS011;7878;44.632;10.942;2023-02-18T11:36:47;23.42;;;21.23;;
15553;SDS011;7878;44.632;10.942;2023-02-18T11:39:21;22.90;;;20.55;;
15553;SDS011;7878;44.632;10.942;2023-02-18T11:41:56;23.63;;;21.15;;
15553;SDS011;7878;44.632;10.942;2023-02-18T11:44:48;22.92;;;20.52;;
15553;SDS011;7878;44.632;10.942;2023-02-18T11:47:24;23.67;;;21.42;;
15553;SDS011;7878;44.632;10.942;2023-02-18T11:50:03;24.60;;;22.10;;
15553;SDS011;7878;44.632;10.942;2023-02-18T11:52:42;23.30;;;20.95;;
15553;SDS011;7878;44.632;10.942;2023-02-18T11:57:56;25.80;;;23.40;;
15553;SDS011;7878;44.632;10.942;2023-02-18T12:00:40;24.98;;;22.67;;
15553;SDS011;7878;44.632;10.942;2023-02-18T12:06:44;25.92;;;21.08;;
15553;SDS011;7878;44.632;10.942;2023-02-18T12:12:04;24.52;;;22.00;;
15553;SDS011;7878;44.632;10.942;2023-02-18T12:14:36;26.55;;;23.95;;
15553;SDS011;7878;44.632;10.942;2023-02-18T12:17:09;24.98;;;22.38;;
15553;SDS011;7878;44.632;10.942;2023-02-18T12:19:57;27.40;;;23.77;;
15553;SDS011;7878;44.632;10.942;2023-02-18T12:22:44;27.08;;;24.27;;
15553;SDS011;7878;44.632;10.942;2023-02-18T12:30:59;26.40;;;23.42;;
15553;SDS011;7878;44.632;10.942;2023-02-18T12:49:42;25.80;;;23.02;;
15553;SDS011;7878;44.632;10.942;2023-02-18T12:57:42;26.10;;;23.63;;
15553;SDS011;7878;44.632;10.942;2023-02-18T13:09:02;25.15;;;22.70;;
15553;SDS011;7878;44.632;10.942;2023-02-18T13:14:50;24.95;;;22.45;;
15553;SDS011;7878;44.632;10.942;2023-02-18T13:17:24;24.20;;;21.80;;
15553;SDS011;7878;44.632;10.942;2023-02-18T13:19:54;27.63;;;24.55;;
15553;SDS011;7878;44.632;10.942;2023-02-18T13:22:25;24.42;;;21.83;;
15553;SDS011;7878;44.632;10.942;2023-02-18T13:24:53;23.95;;;21.65;;
15553;SDS011;7878;44.632;10.942;2023-02-18T13:30:22;25.70;;;21.45;;
15553;SDS011;7878;44.632;10.942;2023-02-18T13:38:52;23.75;;;21.17;;
15553;SDS011;7878;44.632;10.942;2023-02-18T13:41:33;26.27;;;21.88;;
15553;SDS011;7878;44.632;10.942;2023-02-18T13:44:05;25.92;;;22.77;;
15553;SDS011;7878;44.632;10.942;2023-02-18T13:46:35;23.25;;;20.20;;
15553;SDS011;7878;44.632;10.942;2023-02-18T13:49:37;31.65;;;20.55;;
15553;SDS011;7878;44.632;10.942;2023-02-18T13:52:02;23.52;;;20.95;;
15553;SDS011;7878;44.632;10.942;2023-02-18T13:54:41;29.70;;;20.13;;
15553;SDS011;7878;44.632;10.942;2023-02-18T13:57:13;21.80;;;19.60;;
15553;SDS011;7878;44.632;10.942;2023-02-18T14:04:50;22.48;;;20.15;;
15553;SDS011;7878;44.632;10.942;2023-02-18T14:09:57;23.80;;;19.83;;
15553;SDS011;7878;44.632;10.942;2023-02-18T14:12:40;23.65;;;20.23;;
15553;SDS011;7878;44.632;10.942;2023-02-18T14:17:48;23.40;;;20.70;;
15553;SDS011;7878;44.632;10.942;2023-02-18T14:41:48;25.90;;;21.43;;
15553;SDS011;7878;44.632;10.942;2023-02-18T14:44:35;25.23;;;22.47;;
15553;SDS011;7878;44.632;10.942;2023-02-18T14:50:29;27.43;;;23.20;;
15553;SDS011;7878;44.632;10.942;2023-02-18T14:52:58;28.53;;;24.10;;
15553;SDS011;7878;44.632;10.942;2023-02-18T14:55:29;30.67;;;24.33;;
15553;SDS011;7878;44.632;10.942;2023-02-18T15:00:28;26.13;;;22.57;;
15553;SDS011;7878;44.632;10.942;2023-02-18T15:02:58;28.97;;;22.43;;
15553;SDS011;7878;44.632;10.942;2023-02-18T15:05:29;26.23;;;23.03;;
15553;SDS011;7878;44.632;10.942;2023-02-18T15:07:57;27.17;;;23.53;;
15553;SDS011;7878;44.632;10.942;2023-02-18T15:10:34;28.83;;;23.67;;
15553;SDS011;7878;44.632;10.942;2023-02-18T15:13:03;30.67;;;24.77;;
15553;SDS011;7878;44.632;10.942;2023-02-18T15:15:32;27.33;;;23.50;;
15553;SDS011;7878;44.632;10.942;2023-02-18T15:18:00;27.77;;;24.13;;
15553;SDS011;7878;44.632;10.942;2023-02-18T15:20:28;27.90;;;24.50;;
15553;SDS011;7878;44.632;10.942;2023-02-18T15:22:58;29.37;;;24.37;;
15553;SDS011;7878;44.632;10.942;2023-02-18T15:25:25;27.13;;;23.70;;
15553;SDS011;7878;44.632;10.942;2023-02-18T15:27:51;27.93;;;24.93;;
15553;SDS011;7878;44.632;10.942;2023-02-18T15:32:52;31.90;;;26.23;;
15553;SDS011;7878;44.632;10.942;2023-02-18T15:35:20;30.47;;;24.53;;
15553;SDS011;7878;44.632;10.942;2023-02-18T15:37:50;31.87;;;25.67;;
15553;SDS011;7878;44.632;10.942;2023-02-18T15:40:18;30.50;;;25.90;;
15553;SDS011;7878;44.632;10.942;2023-02-18T15:42:46;31.00;;;25.77;;
15553;SDS011;7878;44.632;10.942;2023-02-18T15:45:22;29.50;;;25.77;;
15553;SDS011;7878;44.632;10.942;2023-02-18T15:47:54;28.73;;;23.93;;
15553;SDS011;7878;44.632;10.942;2023-02-18T15:50:23;32.93;;;24.83;;
15553;SDS011;7878;44.632;10.942;2023-02-18T15:52:55;29.13;;;24.47;;
15553;SDS011;7878;44.632;10.942;2023-02-18T15:55:30;30.17;;;23.63;;
15553;SDS011;7878;44.632;10.942;2023-02-18T15:58:02;28.20;;;24.83;;
15553;SDS011;7878;44.632;10.942;2023-02-18T16:00:32;28.73;;;24.87;;
15553;SDS011;7878;44.632;10.942;2023-02-18T16:05:44;31.80;;;25.30;;
15553;SDS011;7878;44.632;10.942;2023-02-18T16:08:14;30.23;;;24.37;;
15553;SDS011;7878;44.632;10.942;2023-02-18T16:10:48;28.57;;;24.87;;
15553;SDS011;7878;44.632;10.942;2023-02-18T16:13:23;31.33;;;25.10;;
15553;SDS011;7878;44.632;10.942;2023-02-18T16:15:50;32.37;;;25.23;;
15553;SDS011;7878;44.632;10.942;2023-02-18T16:18:21;37.13;;;26.17;;
15553;SDS011;7878;44.632;10.942;2023-02-18T16:20:58;32.30;;;27.03;;
15553;SDS011;7878;44.632;10.942;2023-02-18T16:23:31;31.37;;;25.27;;
15553;SDS011;7878;44.632;10.942;2023-02-18T16:26:19;30.47;;;25.97;;
15553;SDS011;7878;44.632;10.942;2023-02-18T16:28:54;32.37;;;27.07;;
15553;SDS011;7878;44.632;10.942;2023-02-18T16:31:24;31.77;;;26.33;;
15553;SDS011;7878;44.632;10.942;2023-02-18T16:33:50;37.27;;;26.97;;
15553;SDS011;7878;44.632;10.942;2023-02-18T16:36:16;31.57;;;26.73;;
15553;SDS011;7878;44.632;10.942;2023-02-18T16:38:43;30.97;;;25.90;;
15553;SDS011;7878;44.632;10.942;2023-02-18T16:41:11;35.93;;;27.20;;
15553;SDS011;7878;44.632;10.942;2023-02-18T16:43:38;32.23;;;26.53;;
15553;SDS011;7878;44.632;10.942;2023-02-18T16:46:15;33.20;;;27.83;;
15553;SDS011;7878;44.632;10.942;2023-02-18T16:48:43;41.43;;;27.70;;
15553;SDS011;7878;44.632;10.942;2023-02-18T16:51:21;38.10;;;28.80;;
15553;SDS011;7878;44.632;10.942;2023-02-18T16:53:53;43.27;;;28.23;;
15553;SDS011;7878;44.632;10.942;2023-02-18T16:56:22;38.13;;;28.83;;
15553;SDS011;7878;44.632;10.942;2023-02-18T16:58:50;39.37;;;29.17;;
15553;SDS011;7878;44.632;10.942;2023-02-18T17:01:29;62.93;;;29.77;;
15553;SDS011;7878;44.632;10.942;2023-02-18T17:03:57;39.50;;;30.27;;
15553;SDS011;7878;44.632;10.942;2023-02-18T17:06:24;40.30;;;28.63;;
15553;SDS011;7878;44.632;10.942;2023-02-18T17:08:50;38.23;;;28.77;;
15553;SDS011;7878;44.632;10.942;2023-02-18T17:11:20;37.37;;;28.37;;
15553;SDS011;7878;44.632;10.942;2023-02-18T17:13:49;39.20;;;29.23;;